METAR AND TAF INFORMATION
METAR FOR WSSS
ADDS - METARS form results

(0910 UTC 23 August 2019)
Data provider http://aviationweather.gov/metar/data/
 
METAR text: WSSS 230900Z 17014KT 9999 FEW020TCU BKN300 32/21 Q1009 NOSIG
Conditions at: WSSS (SINGAPORE/CHANGI, SG) observed 0900 UTC 23 August 2019
Temperature: 32.0°C (90°F)
Dewpoint: 21.0°C (70°F) [RH = 52%]
Pressure (altimeter): 29.79 inches Hg (1009.0 mb)
Winds: from the S (170 degrees) at 16 MPH (14 knots; 7.2 m/s)
Visibility: 6 or more miles (10+ km)
Ceiling: 30000 feet AGL
Clouds: few clouds at 2000 feet AGL
broken clouds at 30000 feet AGL
Weather: no significant weather observed at this time

METAR text: WSSS 230830Z 17016KT 140V200 9999 FEW020TCU BKN300 32/21 Q1009 NOSIG
Conditions at: WSSS (SINGAPORE/CHANGI, SG) observed 0830 UTC 23 August 2019
Temperature: 32.0°C (90°F)
Dewpoint: 21.0°C (70°F) [RH = 52%]
Pressure (altimeter): 29.79 inches Hg (1009.0 mb)
Winds: from the S (170 degrees) at 18 MPH (16 knots; 8.2 m/s)
Visibility: 6 or more miles (10+ km)
Ceiling: 30000 feet AGL
Clouds: few clouds at 2000 feet AGL
broken clouds at 30000 feet AGL
Weather: no significant weather observed at this time

Forecast for: AMD
Text: TAF AMD WSSS 230800Z 2308/2412 16010KT 9999 FEW015 SCT020
Forecast period: 0800 UTC 23 August 2019 to 1200 UTC 24 August 2019
Forecast type: FROM: standard forecast or significant change
Winds: from the SSE (160 degrees) at 12 MPH (10 knots; 5.1 m/s)
Visibility: 6 or more miles 10+ km)
Ceiling: at least 12,000 feet AGL
Clouds: few clouds at 1500 feet AGL
scattered clouds at 2000 feet AGL
Weather: no significant weather forecast for this period

 AIRPORT MAP

 RUNWAY INFORMATION
Runway 02C Runway length 13123 ft Runway width 197 ft
Runway elevation 15 ft Runway displaced threshold 0 ft Runway heading 23
Runway 20C Runway length 13123 ft Runway width 197 ft
Runway elevation 15 ft Runway displaced threshold 0 ft Runway heading 203
Runway 02L Runway length 13123 ft Runway width 197 ft
Runway elevation 22 ft Runway displaced threshold 0 ft Runway heading 23
Runway 20R Runway length 13123 ft Runway width 197 ft
Runway elevation 14 ft Runway displaced threshold 2429 ft Runway heading 203
Runway 02R Runway length 9015 ft Runway width 195 ft
Runway elevation 0 ft Runway displaced threshold 0 ft Runway heading 23
Runway 20L Runway length 9015 ft Runway width 195 ft
Runway elevation 0 ft Runway displaced threshold 0 ft Runway heading 203

 AIRPORT FREQUENCIES
Type A/D Name APP/DEP Frequency 120.3 MHZ
Type ARR Name ARR Frequency 119.3 MHZ
Type ATIS Name ATIS Frequency 128.6 MHZ
Type CLD Name CLNC DEL Frequency 121.65 MHZ
Type GND Name GND Frequency 124.3 MHZ
Type TWR Name TWR Frequency 118.6 MHZ

 AIRPORT NEAR NAVIGATION AIDS
Type NDB Name Bedok Frequency 232 KHZ
Type VOR-DME Name Tekong Frequency 116500 KHZ



Powered by Virtual Airlines Manager [v2.6.2]